Time;durP1;ratioP1;P1;durP2;ratioP2;P2;SDS_P1;SDS_P2;PMS_P1;PMS_P2;Temp;Humidity;BMP_temperature;BMP_pressure;BME280_temperature;BME280_humidity;BME280_pressure;Samples;Min_cycle;Max_cycle;Signal;HPM_P1;HPM_P2
2023/03/11 00:01:26;;;;;;;6.90;3.70;;;;;;;;;;105717;1255;59569;-50
2023/03/11 00:03:54;;;;;;;7.20;4.20;;;;;;;;;;105438;1254;60559;-51
2023/03/11 00:06:22;;;;;;;4.60;3.90;;;;;;;;;;105325;1251;60782;-51
2023/03/11 00:08:54;;;;;;;5.10;3.80;;;;;;;;;;105398;1253;60523;-50
2023/03/11 00:11:24;;;;;;;5.10;3.50;;;;;;;;;;105742;1256;62111;-49
2023/03/11 00:13:53;;;;;;;5.10;3.90;;;;;;;;;;105666;1254;60361;-50
2023/03/11 00:16:21;;;;;;;4.70;3.60;;;;;;;;;;105459;1253;60797;-50
2023/03/11 00:18:51;;;;;;;4.90;4.20;;;;;;;;;;105421;1252;60434;-48
2023/03/11 00:21:20;;;;;;;4.60;4.10;;;;;;;;;;105650;1256;61144;-50
2023/03/11 00:23:48;;;;;;;5.30;3.80;;;;;;;;;;105541;1251;61849;-51
2023/03/11 00:26:16;;;;;;;5.00;3.90;;;;;;;;;;105248;1251;60425;-51
2023/03/11 00:28:44;;;;;;;6.10;4.10;;;;;;;;;;105445;1251;60971;-48
2023/03/11 00:31:16;;;;;;;6.60;3.60;;;;;;;;;;105463;1263;60412;-48
2023/03/11 00:34:04;;;;;;;5.10;4.10;;;;;;;;;;105366;1256;60892;-51
2023/03/11 00:36:35;;;;;;;5.50;4.00;;;;;;;;;;105325;1256;62345;-47
2023/03/11 00:39:05;;;;;;;3.80;3.20;;;;;;;;;;105232;1251;60579;-49
2023/03/11 00:41:34;;;;;;;5.80;4.20;;;;;;;;;;106543;1251;60532;-50
2023/03/11 00:44:02;;;;;;;7.40;4.60;;;;;;;;;;105299;1251;60438;-49
2023/03/11 00:46:31;;;;;;;4.80;3.90;;;;;;;;;;105365;1251;60528;-51
2023/03/11 00:48:59;;;;;;;4.70;3.90;;;;;;;;;;105941;1251;62187;-50
2023/03/11 00:51:28;;;;;;;4.90;4.40;;;;;;;;;;107181;1255;60447;-49
2023/03/11 00:53:56;;;;;;;6.20;3.70;;;;;;;;;;105273;1254;61262;-51
2023/03/11 00:56:24;;;;;;;6.70;4.50;;;;;;;;;;105170;1255;60427;-48
2023/03/11 00:58:52;;;;;;;10.30;4.90;;;;;;;;;;105362;1258;60501;-49
2023/03/11 01:01:21;;;;;;;5.60;4.20;;;;;;;;;;105322;1251;61983;-51
2023/03/11 01:03:49;;;;;;;6.10;4.20;;;;;;;;;;105542;1254;60389;-49
2023/03/11 01:06:20;;;;;;;6.10;4.80;;;;;;;;;;105190;1251;60514;-50
2023/03/11 01:08:48;;;;;;;6.20;4.50;;;;;;;;;;105349;1256;60520;-51
2023/03/11 01:11:16;;;;;;;5.10;3.90;;;;;;;;;;105468;1251;60471;-50
2023/03/11 01:13:45;;;;;;;7.80;5.10;;;;;;;;;;106227;1251;62682;-48
2023/03/11 01:16:14;;;;;;;5.40;3.10;;;;;;;;;;105699;1256;60447;-51
2023/03/11 01:18:43;;;;;;;7.40;4.60;;;;;;;;;;105719;1256;60696;-48
2023/03/11 01:21:11;;;;;;;7.60;3.90;;;;;;;;;;105701;1257;59626;-49
2023/03/11 01:23:40;;;;;;;6.50;4.10;;;;;;;;;;105998;1251;60487;-50
2023/03/11 01:26:07;;;;;;;8.40;3.60;;;;;;;;;;105446;1251;62238;-48
2023/03/11 01:28:35;;;;;;;4.40;3.50;;;;;;;;;;105425;1251;60548;-46
2023/03/11 01:31:03;;;;;;;4.90;3.10;;;;;;;;;;105114;1258;60877;-48
2023/03/11 01:33:32;;;;;;;6.20;3.40;;;;;;;;;;105456;1257;60511;-50
2023/03/11 01:36:00;;;;;;;4.60;3.70;;;;;;;;;;105388;1251;60542;-50
2023/03/11 01:38:28;;;;;;;5.80;3.60;;;;;;;;;;105501;1251;62340;-50
2023/03/11 01:40:56;;;;;;;4.20;3.40;;;;;;;;;;105377;1255;60780;-48
2023/03/11 01:43:38;;;;;;;4.70;3.80;;;;;;;;;;105096;1251;60929;-49
2023/03/11 01:46:11;;;;;;;4.00;3.10;;;;;;;;;;105066;1251;61019;-48
2023/03/11 01:48:41;;;;;;;4.50;3.00;;;;;;;;;;107513;1251;60435;-48
2023/03/11 01:51:09;;;;;;;8.50;3.90;;;;;;;;;;105118;1257;62124;-47
2023/03/11 01:53:38;;;;;;;4.00;3.20;;;;;;;;;;105212;1251;60537;-49
2023/03/11 01:56:06;;;;;;;6.90;4.60;;;;;;;;;;105179;1251;60897;-49
2023/03/11 01:58:35;;;;;;;4.20;3.00;;;;;;;;;;105398;1256;60459;-50
2023/03/11 02:01:03;;;;;;;5.90;3.50;;;;;;;;;;105395;1251;60558;-48
2023/03/11 02:03:35;;;;;;;3.80;3.10;;;;;;;;;;105090;1251;61944;-49
2023/03/11 02:06:12;;;;;;;4.90;2.90;;;;;;;;;;105342;1251;60476;-47
2023/03/11 02:08:40;;;;;;;6.20;2.80;;;;;;;;;;105486;1254;60452;-47
2023/03/11 02:11:10;;;;;;;4.80;3.70;;;;;;;;;;105731;1251;60521;-47
2023/03/11 02:13:39;;;;;;;3.90;3.50;;;;;;;;;;105398;1251;60523;-50
2023/03/11 02:16:07;;;;;;;4.80;2.90;;;;;;;;;;105437;1254;62194;-48
2023/03/11 02:18:36;;;;;;;4.30;2.90;;;;;;;;;;105477;1254;60600;-46
2023/03/11 02:21:23;;;;;;;3.80;2.90;;;;;;;;;;105435;1251;62978;-48
2023/03/11 02:24:04;;;;;;;4.30;2.80;;;;;;;;;;105215;1254;60573;-51
2023/03/11 02:26:33;;;;;;;7.00;3.30;;;;;;;;;;105261;1251;60722;-46
2023/03/11 02:29:02;;;;;;;6.10;2.90;;;;;;;;;;105322;1256;61098;-46
2023/03/11 02:31:30;;;;;;;4.90;3.20;;;;;;;;;;105073;1256;60338;-48
2023/03/11 02:34:00;;;;;;;6.20;3.00;;;;;;;;;;105454;1254;60720;-45
2023/03/11 02:36:34;;;;;;;4.10;2.70;;;;;;;;;;105380;1253;60394;-48
2023/03/11 02:39:03;;;;;;;5.70;3.60;;;;;;;;;;105669;1251;60430;-48
2023/03/11 02:41:32;;;;;;;3.40;2.50;;;;;;;;;;105523;1251;62107;-46
2023/03/11 02:44:01;;;;;;;3.80;2.60;;;;;;;;;;105211;1259;60357;-46
2023/03/11 02:46:29;;;;;;;3.50;2.90;;;;;;;;;;105343;1257;60826;-47
2023/03/11 02:48:58;;;;;;;6.50;3.40;;;;;;;;;;105630;1257;60421;-49
2023/03/11 02:51:26;;;;;;;5.10;3.20;;;;;;;;;;105347;1251;60428;-48
2023/03/11 02:53:56;;;;;;;3.60;2.60;;;;;;;;;;105293;1255;62195;-50
2023/03/11 02:56:24;;;;;;;6.60;2.70;;;;;;;;;;105611;1255;60403;-51
2023/03/11 02:58:52;;;;;;;2.80;2.40;;;;;;;;;;105314;1258;60448;-49
2023/03/11 03:01:21;;;;;;;3.90;2.10;;;;;;;;;;105236;1257;60530;-47
2023/03/11 03:03:49;;;;;;;4.00;3.10;;;;;;;;;;105923;1251;60489;-49
2023/03/11 03:06:17;;;;;;;3.40;3.10;;;;;;;;;;105500;1252;62283;-47
2023/03/11 03:08:47;;;;;;;3.60;2.40;;;;;;;;;;105313;1256;60370;-48
2023/03/11 03:11:15;;;;;;;3.80;2.30;;;;;;;;;;105272;1256;60622;-50
2023/03/11 03:13:42;;;;;;;3.80;2.90;;;;;;;;;;105409;1251;60434;-49
2023/03/11 03:16:11;;;;;;;4.00;2.70;;;;;;;;;;105280;1253;60562;-48
2023/03/11 03:18:39;;;;;;;5.80;2.90;;;;;;;;;;105184;1252;62185;-49
2023/03/11 03:21:08;;;;;;;4.00;3.40;;;;;;;;;;105426;1251;60428;-49
2023/03/11 03:23:37;;;;;;;4.50;4.10;;;;;;;;;;105391;1254;60760;-49
2023/03/11 03:26:05;;;;;;;4.10;3.10;;;;;;;;;;105984;1256;60411;-49
2023/03/11 03:28:37;;;;;;;8.90;4.00;;;;;;;;;;105200;1254;60501;-51
2023/03/11 03:31:05;;;;;;;4.00;2.70;;;;;;;;;;105383;1251;61868;-50
2023/03/11 03:33:36;;;;;;;3.60;3.10;;;;;;;;;;105230;1256;61738;-50
2023/03/11 03:36:07;;;;;;;4.30;3.00;;;;;;;;;;105758;1256;60779;-50
2023/03/11 03:38:41;;;;;;;3.60;2.70;;;;;;;;;;105621;1256;60533;-51
2023/03/11 03:41:09;;;;;;;3.70;3.30;;;;;;;;;;105341;1251;60476;-50
2023/03/11 03:43:39;;;;;;;6.90;3.90;;;;;;;;;;105395;1257;61168;-50
2023/03/11 03:46:08;;;;;;;5.80;4.40;;;;;;;;;;105637;1251;60545;-51
2023/03/11 03:48:42;;;;;;;6.70;3.90;;;;;;;;;;105564;1251;60537;-50
2023/03/11 03:51:10;;;;;;;3.80;3.50;;;;;;;;;;105229;1251;60467;-49
2023/03/11 03:53:42;;;;;;;4.70;4.00;;;;;;;;;;105255;1251;60425;-48
2023/03/11 03:56:14;;;;;;;6.10;4.30;;;;;;;;;;105277;1254;62208;-48
2023/03/11 03:58:44;;;;;;;4.40;3.80;;;;;;;;;;105410;1259;60613;-50
2023/03/11 04:01:13;;;;;;;6.10;4.20;;;;;;;;;;105561;1257;60623;-50
2023/03/11 04:03:41;;;;;;;8.10;5.60;;;;;;;;;;105460;1256;60399;-48
2023/03/11 04:06:19;;;;;;;8.10;5.30;;;;;;;;;;105304;1257;60421;-49
2023/03/11 04:08:49;;;;;;;5.40;4.60;;;;;;;;;;105368;1256;62154;-50
2023/03/11 04:11:18;;;;;;;5.80;4.20;;;;;;;;;;105599;1251;61048;-50
2023/03/11 04:13:47;;;;;;;5.90;4.40;;;;;;;;;;106374;1256;60877;-51
2023/03/11 04:16:16;;;;;;;6.10;3.90;;;;;;;;;;105440;1257;60433;-48
2023/03/11 04:18:44;;;;;;;6.50;4.10;;;;;;;;;;105746;1257;60405;-47
2023/03/11 04:21:13;;;;;;;8.10;4.30;;;;;;;;;;105459;1251;62165;-49
2023/03/11 04:23:41;;;;;;;6.40;4.50;;;;;;;;;;105294;1254;62389;-50
2023/03/11 04:26:10;;;;;;;5.50;4.60;;;;;;;;;;105804;1256;60786;-49
2023/03/11 04:28:38;;;;;;;3.90;3.40;;;;;;;;;;105521;1259;59212;-50
2023/03/11 04:31:06;;;;;;;6.00;3.50;;;;;;;;;;105115;1251;61821;-51
2023/03/11 04:33:36;;;;;;;5.00;4.30;;;;;;;;;;105282;1253;62205;-50
2023/03/11 04:36:05;;;;;;;5.60;4.50;;;;;;;;;;105482;1251;60624;-51
2023/03/11 04:38:33;;;;;;;6.10;5.20;;;;;;;;;;106671;1256;60952;-50
2023/03/11 04:41:05;;;;;;;9.90;5.50;;;;;;;;;;105475;1260;60427;-48
2023/03/11 04:43:34;;;;;;;7.30;5.70;;;;;;;;;;105636;1256;60504;-46
2023/03/11 04:46:02;;;;;;;7.70;5.20;;;;;;;;;;105249;1252;61187;-50
2023/03/11 04:48:31;;;;;;;5.50;4.60;;;;;;;;;;105503;1256;60460;-50
2023/03/11 04:51:00;;;;;;;8.00;5.40;;;;;;;;;;105447;1257;60588;-51
2023/03/11 04:53:33;;;;;;;6.60;5.50;;;;;;;;;;105300;1254;60485;-50
2023/03/11 04:56:01;;;;;;;8.80;5.80;;;;;;;;;;105400;1256;60896;-52
2023/03/11 04:58:30;;;;;;;7.10;5.90;;;;;;;;;;105142;1254;62129;-52
2023/03/11 05:00:58;;;;;;;7.90;5.80;;;;;;;;;;105234;1258;60291;-51
2023/03/11 05:03:26;;;;;;;8.20;6.00;;;;;;;;;;105366;1256;60341;-51
2023/03/11 05:05:58;;;;;;;7.60;5.40;;;;;;;;;;105359;1256;60581;-51
2023/03/11 05:08:27;;;;;;;8.30;6.60;;;;;;;;;;105598;1251;60388;-51
2023/03/11 05:10:57;;;;;;;9.10;6.10;;;;;;;;;;105139;1257;63754;-51
2023/03/11 05:13:27;;;;;;;7.20;4.70;;;;;;;;;;105117;1257;60539;-51
2023/03/11 05:15:55;;;;;;;7.50;5.60;;;;;;;;;;105390;1260;60995;-50
2023/03/11 05:18:24;;;;;;;6.10;5.50;;;;;;;;;;105214;1257;60536;-49
2023/03/11 05:20:58;;;;;;;9.20;5.80;;;;;;;;;;105204;1253;60418;-50
2023/03/11 05:23:28;;;;;;;10.50;6.60;;;;;;;;;;105834;1255;61112;-50
2023/03/11 05:25:56;;;;;;;10.00;7.20;;;;;;;;;;105245;1260;61555;-51
2023/03/11 05:28:24;;;;;;;9.50;7.30;;;;;;;;;;105225;1256;60843;-50
2023/03/11 05:30:53;;;;;;;9.30;7.30;;;;;;;;;;105851;1257;60536;-50
2023/03/11 05:33:24;;;;;;;9.10;7.10;;;;;;;;;;105495;1255;60587;-50
2023/03/11 05:35:53;;;;;;;8.80;7.00;;;;;;;;;;105692;1251;63268;-49
2023/03/11 05:38:21;;;;;;;10.20;7.60;;;;;;;;;;105044;1251;60691;-50
2023/03/11 05:40:49;;;;;;;9.30;6.90;;;;;;;;;;105132;1251;60934;-50
2023/03/11 05:43:17;;;;;;;9.30;6.90;;;;;;;;;;104863;1257;60620;-51
2023/03/11 05:45:49;;;;;;;8.10;7.30;;;;;;;;;;104852;1252;60409;-49
2023/03/11 05:48:17;;;;;;;9.50;6.70;;;;;;;;;;105174;1257;61925;-50
2023/03/11 05:50:45;;;;;;;10.30;7.50;;;;;;;;;;105218;1257;60530;-50
2023/03/11 05:53:13;;;;;;;8.20;7.30;;;;;;;;;;105296;1251;61031;-50
2023/03/11 05:55:40;;;;;;;11.60;9.10;;;;;;;;;;105049;1251;61076;-50
2023/03/11 05:58:10;;;;;;;15.90;9.30;;;;;;;;;;105913;1256;60373;-51
2023/03/11 06:00:38;;;;;;;9.20;7.70;;;;;;;;;;105350;1253;61964;-48
2023/03/11 06:03:18;;;;;;;12.30;8.70;;;;;;;;;;105374;1256;60594;-50
2023/03/11 06:05:47;;;;;;;11.70;8.50;;;;;;;;;;106309;1257;60539;-49
2023/03/11 06:08:15;;;;;;;9.60;7.80;;;;;;;;;;105307;1257;60543;-47
2023/03/11 06:10:43;;;;;;;12.50;8.80;;;;;;;;;;105317;1257;60508;-46
2023/03/11 06:13:16;;;;;;;13.20;8.40;;;;;;;;;;105385;1251;62141;-47
2023/03/11 06:15:50;;;;;;;13.60;9.20;;;;;;;;;;105479;1255;60459;-50
2023/03/11 06:18:25;;;;;;;14.80;8.60;;;;;;;;;;105287;1251;60553;-47
2023/03/11 06:20:53;;;;;;;13.20;10.20;;;;;;;;;;105855;1250;60396;-47
2023/03/11 06:23:23;;;;;;;14.20;9.70;;;;;;;;;;105044;1251;60414;-51
2023/03/11 06:25:57;;;;;;;13.20;9.80;;;;;;;;;;105650;1257;62114;-51
2023/03/11 06:28:26;;;;;;;14.20;10.40;;;;;;;;;;105267;1256;60554;-50
2023/03/11 06:31:00;;;;;;;12.50;9.70;;;;;;;;;;105204;1251;60398;-50
2023/03/11 06:33:29;;;;;;;12.10;9.20;;;;;;;;;;105570;1256;60785;-48
2023/03/11 06:36:00;;;;;;;14.90;9.70;;;;;;;;;;105458;1254;60540;-50
2023/03/11 06:38:29;;;;;;;11.80;8.80;;;;;;;;;;105608;1254;61866;-49
2023/03/11 06:40:58;;;;;;;11.10;8.80;;;;;;;;;;105817;1257;60508;-50
2023/03/11 06:43:25;;;;;;;10.70;8.80;;;;;;;;;;105068;1257;60759;-53
2023/03/11 06:45:54;;;;;;;15.00;9.30;;;;;;;;;;105528;1256;59150;-52
2023/03/11 06:48:23;;;;;;;11.90;9.20;;;;;;;;;;105398;1254;60527;-51
2023/03/11 06:50:53;;;;;;;13.70;9.70;;;;;;;;;;105681;1256;61026;-52
2023/03/11 06:53:22;;;;;;;16.30;10.20;;;;;;;;;;105342;1251;60504;-51
2023/03/11 06:55:57;;;;;;;14.10;9.30;;;;;;;;;;105169;1251;60622;-52
2023/03/11 06:58:25;;;;;;;11.00;9.30;;;;;;;;;;105842;1251;60472;-52
2023/03/11 07:00:53;;;;;;;15.30;9.80;;;;;;;;;;104766;1251;60815;-51
2023/03/11 07:03:22;;;;;;;13.10;10.20;;;;;;;;;;105392;1251;62339;-52
2023/03/11 07:05:50;;;;;;;14.10;9.00;;;;;;;;;;105818;1256;60415;-51
2023/03/11 07:08:18;;;;;;;12.00;8.40;;;;;;;;;;105002;1253;61626;-50
2023/03/11 07:10:48;;;;;;;11.70;8.30;;;;;;;;;;106083;1257;60489;-51
2023/03/11 07:13:16;;;;;;;9.20;8.30;;;;;;;;;;105459;1257;60987;-50
2023/03/11 07:15:45;;;;;;;10.30;7.90;;;;;;;;;;105155;1257;62284;-51
2023/03/11 07:18:13;;;;;;;12.00;9.00;;;;;;;;;;105060;1251;60332;-49
2023/03/11 07:20:42;;;;;;;11.20;8.80;;;;;;;;;;105056;1251;60635;-51
2023/03/11 07:23:10;;;;;;;10.10;8.10;;;;;;;;;;108886;1251;59752;-49
2023/03/11 07:25:38;;;;;;;10.10;7.00;;;;;;;;;;107561;1254;59334;-52
2023/03/11 07:28:06;;;;;;;13.20;9.40;;;;;;;;;;107586;1257;62105;-48
2023/03/11 07:30:37;;;;;;;10.20;8.00;;;;;;;;;;105056;1260;61691;-50
2023/03/11 07:33:07;;;;;;;9.70;8.00;;;;;;;;;;105257;1256;60952;-51
2023/03/11 07:35:35;;;;;;;11.30;7.60;;;;;;;;;;105213;1259;60658;-47
2023/03/11 07:38:03;;;;;;;12.60;8.20;;;;;;;;;;105640;1251;60424;-50
2023/03/11 07:40:32;;;;;;;8.10;6.80;;;;;;;;;;105055;1251;62254;-51
2023/03/11 07:43:00;;;;;;;8.50;7.40;;;;;;;;;;106302;1256;58913;-49
2023/03/11 07:45:28;;;;;;;8.30;6.80;;;;;;;;;;105686;1254;60826;-46
2023/03/11 07:47:56;;;;;;;7.10;6.40;;;;;;;;;;105685;1256;60431;-49
2023/03/11 07:50:24;;;;;;;10.40;6.70;;;;;;;;;;105673;1251;60449;-50
2023/03/11 07:52:52;;;;;;;10.60;7.20;;;;;;;;;;105390;1252;62222;-49
2023/03/11 07:55:20;;;;;;;9.00;7.70;;;;;;;;;;105491;1251;60303;-49
2023/03/11 07:57:50;;;;;;;11.80;7.80;;;;;;;;;;104927;1251;60522;-50
2023/03/11 08:00:18;;;;;;;11.50;8.70;;;;;;;;;;104936;1251;62495;-50
2023/03/11 08:02:47;;;;;;;15.90;9.10;;;;;;;;;;105722;1255;60382;-52
2023/03/11 08:05:19;;;;;;;12.00;8.10;;;;;;;;;;105675;1251;62147;-50
2023/03/11 08:07:49;;;;;;;9.40;7.50;;;;;;;;;;105458;1251;60409;-49
2023/03/11 08:12:56;;;;;;;12.30;9.00;;;;;;;;;;102156;1291;601818;-50
2023/03/11 08:15:24;;;;;;;12.10;8.50;;;;;;;;;;104985;1256;58938;-52
2023/03/11 08:17:53;;;;;;;11.70;8.80;;;;;;;;;;105214;1257;59212;-51
2023/03/11 08:20:21;;;;;;;12.40;9.70;;;;;;;;;;105255;1259;60512;-48
2023/03/11 08:22:49;;;;;;;15.20;8.90;;;;;;;;;;105204;1256;59028;-53
2023/03/11 08:25:25;;;;;;;11.20;8.40;;;;;;;;;;105401;1257;145520;-51
2023/03/11 08:27:53;;;;;;;11.40;8.30;;;;;;;;;;104938;1254;58963;-49
2023/03/11 08:30:21;;;;;;;14.00;9.30;;;;;;;;;;105224;1254;59151;-51
2023/03/11 08:32:50;;;;;;;11.60;9.00;;;;;;;;;;105670;1253;60233;-53
2023/03/11 08:35:18;;;;;;;17.40;11.60;;;;;;;;;;105334;1253;59036;-52
2023/03/11 08:37:46;;;;;;;17.10;10.70;;;;;;;;;;105925;1254;61349;-51
2023/03/11 08:40:14;;;;;;;15.90;11.90;;;;;;;;;;105291;1259;60259;-51
2023/03/11 08:42:42;;;;;;;15.20;11.60;;;;;;;;;;105180;1253;59727;-52
2023/03/11 08:45:10;;;;;;;16.00;10.80;;;;;;;;;;105621;1254;61132;-52
2023/03/11 08:47:38;;;;;;;14.30;10.00;;;;;;;;;;105254;1255;59779;-52
2023/03/11 08:50:08;;;;;;;15.50;10.90;;;;;;;;;;105260;1254;60916;-52
2023/03/11 08:52:36;;;;;;;14.40;11.80;;;;;;;;;;105269;1259;60499;-51
2023/03/11 08:55:05;;;;;;;14.70;10.60;;;;;;;;;;105200;1255;61234;-53
2023/03/11 08:57:36;;;;;;;12.30;9.50;;;;;;;;;;105386;1255;60125;-53
2023/03/11 09:00:08;;;;;;;13.60;10.40;;;;;;;;;;105578;1259;59611;-53
2023/03/11 09:02:40;;;;;;;15.80;11.00;;;;;;;;;;105335;1257;60424;-50
2023/03/11 09:05:09;;;;;;;19.10;11.10;;;;;;;;;;105162;1256;59627;-53
2023/03/11 09:07:37;;;;;;;15.30;12.40;;;;;;;;;;105546;1256;59543;-52
2023/03/11 09:10:07;;;;;;;17.70;11.90;;;;;;;;;;105088;1256;59955;-49
2023/03/11 09:12:35;;;;;;;15.90;11.60;;;;;;;;;;105277;1256;59645;-53
2023/03/11 09:15:05;;;;;;;15.80;11.80;;;;;;;;;;105097;1260;62210;-53
2023/03/11 09:17:34;;;;;;;16.30;11.60;;;;;;;;;;105094;1259;59751;-50
2023/03/11 09:20:06;;;;;;;14.90;11.70;;;;;;;;;;105583;1256;59533;-51
2023/03/11 09:22:35;;;;;;;17.80;12.40;;;;;;;;;;105048;1256;62033;-52
2023/03/11 09:25:03;;;;;;;14.50;12.30;;;;;;;;;;105034;1259;59552;-51
2023/03/11 09:27:31;;;;;;;20.30;13.00;;;;;;;;;;104744;1256;60552;-51
2023/03/11 09:29:59;;;;;;;14.20;11.50;;;;;;;;;;106547;1256;59730;-54
2023/03/11 09:32:29;;;;;;;15.20;11.80;;;;;;;;;;105075;1256;59622;-51
2023/03/11 09:34:59;;;;;;;14.00;11.90;;;;;;;;;;104998;1256;60552;-51
2023/03/11 09:37:29;;;;;;;12.10;9.70;;;;;;;;;;108879;1256;57979;-53
2023/03/11 09:39:56;;;;;;;14.40;10.30;;;;;;;;;;108512;1257;60830;-52
2023/03/11 09:42:30;;;;;;;16.90;12.40;;;;;;;;;;104971;1259;60147;-52
2023/03/11 09:45:01;;;;;;;15.80;12.20;;;;;;;;;;105005;1256;60398;-52
2023/03/11 09:47:40;;;;;;;18.60;13.30;;;;;;;;;;104739;1260;61435;-49
2023/03/11 09:50:13;;;;;;;17.10;13.00;;;;;;;;;;104958;1258;59741;-54
2023/03/11 09:53:07;;;;;;;15.30;13.40;;;;;;;;;;105620;1255;59814;-51
2023/03/11 09:55:38;;;;;;;18.10;13.80;;;;;;;;;;104948;1259;60061;-52
2023/03/11 09:58:30;;;;;;;19.00;15.60;;;;;;;;;;105164;1259;59619;-51
2023/03/11 10:00:58;;;;;;;18.60;14.10;;;;;;;;;;108880;1256;61145;-53
2023/03/11 10:03:28;;;;;;;17.90;14.10;;;;;;;;;;106900;1259;61154;-52
2023/03/11 10:06:16;;;;;;;17.30;14.30;;;;;;;;;;105397;1258;59847;-53
2023/03/11 10:08:56;;;;;;;20.40;14.60;;;;;;;;;;105135;1257;59625;-53
2023/03/11 10:11:25;;;;;;;21.10;15.30;;;;;;;;;;105028;1256;59634;-52
2023/03/11 10:13:59;;;;;;;18.70;15.00;;;;;;;;;;104992;1256;61330;-52
2023/03/11 10:16:37;;;;;;;20.10;15.20;;;;;;;;;;105016;1259;59628;-52
2023/03/11 10:19:10;;;;;;;18.40;15.50;;;;;;;;;;105249;1259;60606;-52
2023/03/11 10:21:45;;;;;;;16.10;13.80;;;;;;;;;;108913;1256;58177;-53
2023/03/11 10:24:25;;;;;;;24.10;16.80;;;;;;;;;;106323;1259;58941;-50
2023/03/11 10:27:04;;;;;;;22.40;17.10;;;;;;;;;;104975;1257;61662;-53
2023/03/11 10:29:45;;;;;;;17.00;13.40;;;;;;;;;;104983;1255;59597;-52
2023/03/11 10:32:16;;;;;;;17.10;15.30;;;;;;;;;;105387;1257;62236;-53
2023/03/11 10:34:47;;;;;;;16.90;14.00;;;;;;;;;;104919;1259;60218;-49
2023/03/11 10:37:36;;;;;;;15.50;13.10;;;;;;;;;;105292;1260;59598;-51
2023/03/11 10:40:43;;;;;;;18.70;14.00;;;;;;;;;;105108;1259;61208;-50
2023/03/11 10:43:41;;;;;;;17.30;13.40;;;;;;;;;;105135;1259;59577;-50
2023/03/11 10:46:17;;;;;;;15.70;13.30;;;;;;;;;;105092;1256;60809;-51
2023/03/11 10:48:46;;;;;;;16.50;13.70;;;;;;;;;;105215;1256;59646;-51
2023/03/11 10:51:22;;;;;;;15.60;12.50;;;;;;;;;;105468;1258;60367;-51
2023/03/11 10:53:54;;;;;;;14.20;12.00;;;;;;;;;;104868;1255;61361;-52
2023/03/11 10:56:27;;;;;;;12.70;10.70;;;;;;;;;;105425;1259;59519;-51
2023/03/11 10:58:56;;;;;;;17.50;13.30;;;;;;;;;;105252;1256;60633;-50
2023/03/11 11:01:24;;;;;;;15.10;12.60;;;;;;;;;;105393;1255;59720;-53
2023/03/11 11:03:54;;;;;;;15.80;13.30;;;;;;;;;;105045;1256;59621;-52
2023/03/11 11:06:29;;;;;;;16.30;13.80;;;;;;;;;;105617;1250;60331;-50
2023/03/11 11:09:09;;;;;;;17.20;13.80;;;;;;;;;;105935;1254;59691;-51
2023/03/11 11:11:38;;;;;;;19.00;13.70;;;;;;;;;;105485;1251;61523;-49
2023/03/11 11:14:08;;;;;;;14.30;12.60;;;;;;;;;;105836;1255;59628;-51
2023/03/11 11:16:36;;;;;;;14.50;12.30;;;;;;;;;;105525;1254;59511;-51
2023/03/11 11:19:09;;;;;;;15.40;12.40;;;;;;;;;;105679;1250;61574;-53
2023/03/11 11:21:39;;;;;;;15.90;13.40;;;;;;;;;;105480;1255;59814;-51
2023/03/11 11:24:14;;;;;;;17.40;13.10;;;;;;;;;;105691;1250;60369;-53
2023/03/11 11:27:01;;;;;;;14.70;12.40;;;;;;;;;;105144;1253;59621;-52
2023/03/11 11:29:29;;;;;;;14.40;11.80;;;;;;;;;;109164;1250;57546;-54
2023/03/11 11:32:15;;;;;;;20.70;15.80;;;;;;;;;;106230;1250;60076;-51
2023/03/11 11:34:53;;;;;;;15.00;13.10;;;;;;;;;;105530;1254;60466;-48
2023/03/11 11:37:22;;;;;;;14.20;12.40;;;;;;;;;;105490;1255;59796;-52
2023/03/11 11:39:51;;;;;;;13.50;12.10;;;;;;;;;;105802;1256;60349;-51
2023/03/11 11:42:19;;;;;;;13.80;12.00;;;;;;;;;;105362;1253;59564;-52
2023/03/11 11:44:52;;;;;;;16.60;13.30;;;;;;;;;;107047;1250;61535;-52
2023/03/11 11:47:39;;;;;;;18.30;14.40;;;;;;;;;;105088;1256;59685;-51
2023/03/11 11:50:31;;;;;;;14.40;12.40;;;;;;;;;;104946;1258;60811;-53
2023/03/11 11:53:18;;;;;;;14.30;12.40;;;;;;;;;;105141;1255;59727;-53
2023/03/11 11:55:51;;;;;;;14.80;13.10;;;;;;;;;;105299;1253;59477;-54
2023/03/11 11:58:20;;;;;;;17.50;12.60;;;;;;;;;;105447;1250;61193;-53
2023/03/11 12:00:54;;;;;;;15.00;13.10;;;;;;;;;;105348;1258;59540;-53
2023/03/11 12:03:22;;;;;;;15.00;13.50;;;;;;;;;;105279;1250;60498;-52
2023/03/11 12:05:57;;;;;;;16.00;13.40;;;;;;;;;;105316;1255;59606;-52
2023/03/11 12:08:33;;;;;;;16.10;14.00;;;;;;;;;;105886;1255;59659;-51
2023/03/11 12:11:01;;;;;;;;;;;;;;;;;;105094;1259;62329;-50
2023/03/11 12:13:48;;;;;;;14.80;12.70;;;;;;;;;;105139;1255;59831;-53
2023/03/11 12:16:16;;;;;;;17.00;13.60;;;;;;;;;;105239;1259;60794;-52
2023/03/11 12:18:50;;;;;;;17.40;14.00;;;;;;;;;;106043;1252;59651;-53
2023/03/11 12:21:33;;;;;;;17.00;13.90;;;;;;;;;;105288;1256;59768;-53
2023/03/11 12:24:08;;;;;;;20.50;13.50;;;;;;;;;;105419;1257;60146;-53
2023/03/11 12:26:37;;;;;;;19.20;12.80;;;;;;;;;;105271;1253;59808;-52
2023/03/11 12:29:24;;;;;;;13.50;11.00;;;;;;;;;;107659;1255;60472;-53
2023/03/11 12:31:52;;;;;;;14.40;11.40;;;;;;;;;;105170;1253;62239;-49
2023/03/11 12:34:20;;;;;;;12.30;10.60;;;;;;;;;;105988;1258;60432;-52
2023/03/11 12:36:49;;;;;;;10.00;9.10;;;;;;;;;;105614;1253;62007;-51
2023/03/11 12:39:23;;;;;;;11.60;10.20;;;;;;;;;;109099;1251;59211;-51
2023/03/11 12:42:12;;;;;;;12.10;10.60;;;;;;;;;;105425;1252;60544;-53
2023/03/11 12:44:41;;;;;;;9.50;8.00;;;;;;;;;;105481;1252;60492;-51
2023/03/11 12:47:22;;;;;;;10.90;9.60;;;;;;;;;;105606;1258;60757;-52
2023/03/11 12:49:53;;;;;;;9.60;8.20;;;;;;;;;;106245;1259;62157;-52
2023/03/11 12:52:22;;;;;;;8.40;7.50;;;;;;;;;;106066;1251;60474;-53
2023/03/11 12:55:00;;;;;;;12.80;9.10;;;;;;;;;;105483;1255;60489;-54
2023/03/11 12:57:47;;;;;;;14.00;10.40;;;;;;;;;;105549;1259;60433;-52
2023/03/11 13:00:21;;;;;;;10.30;9.30;;;;;;;;;;105411;1258;60521;-53
2023/03/11 13:02:50;;;;;;;10.00;7.90;;;;;;;;;;106008;1253;60723;-52
2023/03/11 13:05:18;;;;;;;10.40;8.30;;;;;;;;;;105876;1251;60456;-53
2023/03/11 13:07:54;;;;;;;9.30;8.40;;;;;;;;;;105742;1255;60984;-52
2023/03/11 13:10:28;;;;;;;8.00;7.20;;;;;;;;;;105515;1256;60516;-53
2023/03/11 13:12:57;;;;;;;;;;;;;;;;;;105623;1253;60534;-53
2023/03/11 13:15:32;;;;;;;11.00;9.10;;;;;;;;;;105513;1255;62237;-53
2023/03/11 13:18:04;;;;;;;12.90;8.40;;;;;;;;;;105794;1253;60987;-52
2023/03/11 13:20:37;;;;;;;10.80;7.80;;;;;;;;;;105413;1255;61296;-52
2023/03/11 13:23:05;;;;;;;8.30;7.50;;;;;;;;;;105256;1257;60531;-52
2023/03/11 13:25:37;;;;;;;10.10;7.50;;;;;;;;;;105260;1254;60455;-50
2023/03/11 13:28:12;;;;;;;9.80;8.80;;;;;;;;;;105538;1256;62186;-51
2023/03/11 13:30:42;;;;;;;9.70;8.20;;;;;;;;;;105735;1253;60363;-53
2023/03/11 13:33:20;;;;;;;10.10;9.10;;;;;;;;;;105444;1254;60412;-52
2023/03/11 13:36:07;;;;;;;11.60;10.40;;;;;;;;;;105736;1255;59241;-51
2023/03/11 13:38:55;;;;;;;10.80;9.60;;;;;;;;;;105295;1258;60531;-52
2023/03/11 13:41:31;;;;;;;11.70;9.30;;;;;;;;;;105754;1253;62242;-53
2023/03/11 13:44:33;;;;;;;11.70;10.50;;;;;;;;;;105597;1255;60311;-53
2023/03/11 13:47:21;;;;;;;15.00;11.70;;;;;;;;;;105178;1253;60801;-52
2023/03/11 13:49:57;;;;;;;14.00;10.90;;;;;;;;;;105298;1256;60502;-52
2023/03/11 13:52:26;;;;;;;15.40;11.90;;;;;;;;;;105528;1250;60447;-52
2023/03/11 13:54:54;;;;;;;12.20;10.90;;;;;;;;;;105460;1253;62312;-53
2023/03/11 13:57:23;;;;;;;14.80;11.50;;;;;;;;;;105352;1254;60521;-51
2023/03/11 13:59:53;;;;;;;13.90;11.30;;;;;;;;;;105454;1256;60518;-49
2023/03/11 14:02:26;;;;;;;14.50;12.70;;;;;;;;;;105355;1255;60533;-53
2023/03/11 14:05:02;;;;;;;17.90;14.10;;;;;;;;;;105272;1252;60403;-51
2023/03/11 14:07:33;;;;;;;14.30;12.10;;;;;;;;;;106572;1254;63367;-52
2023/03/11 14:10:10;;;;;;;17.00;12.30;;;;;;;;;;105279;1260;60645;-51
2023/03/11 14:12:38;;;;;;;13.70;11.40;;;;;;;;;;105357;1250;61002;-51
2023/03/11 14:15:07;;;;;;;19.60;12.90;;;;;;;;;;105257;1255;60660;-52
2023/03/11 14:17:37;;;;;;;18.30;14.10;;;;;;;;;;105325;1253;60756;-53
2023/03/11 14:20:06;;;;;;;18.80;14.20;;;;;;;;;;105340;1253;62111;-52
2023/03/11 14:22:34;;;;;;;21.30;16.40;;;;;;;;;;105539;1254;60332;-51
2023/03/11 14:25:07;;;;;;;21.70;15.60;;;;;;;;;;105240;1251;60585;-54
2023/03/11 14:27:38;;;;;;;20.60;13.40;;;;;;;;;;105427;1255;60515;-52
2023/03/11 14:30:08;;;;;;;16.00;14.30;;;;;;;;;;108351;1254;59135;-52
2023/03/11 14:32:37;;;;;;;16.10;13.70;;;;;;;;;;106066;1250;62308;-52
2023/03/11 14:35:19;;;;;;;15.70;14.10;;;;;;;;;;105535;1254;60585;-51
2023/03/11 14:37:47;;;;;;;21.50;14.80;;;;;;;;;;105618;1255;60984;-52
2023/03/11 14:40:22;;;;;;;14.90;12.60;;;;;;;;;;105415;1251;60760;-49
2023/03/11 14:42:52;;;;;;;8.30;7.60;;;;;;;;;;105359;1250;60299;-51
2023/03/11 14:45:23;;;;;;;6.20;5.60;;;;;;;;;;106421;1250;61283;-51